Time;durP1;ratioP1;P1;durP2;ratioP2;P2;SDS_P1;SDS_P2;PMS_P1;PMS_P2;Temp;Humidity;BMP_temperature;BMP_pressure;BME280_temperature;BME280_humidity;BME280_pressure;Samples;Min_cycle;Max_cycle;Signal;HPM_P1;HPM_P2
2023/04/07 00:01:31;;;;;;;20.27;14.75;;;;;;;;;;5070555;28;20399;-81
2023/04/07 00:03:57;;;;;;;18.30;14.30;;;;;;;;;;5064624;28;20928;-79
2023/04/07 00:06:24;;;;;;;19.90;14.55;;;;;;;;;;5061951;28;20424;-81
2023/04/07 00:08:50;;;;;;;17.13;14.57;;;;;;;;;;5060751;28;20423;-81
2023/04/07 00:11:18;;;;;;;20.25;14.30;;;;;;;;;;5066404;28;20436;-80
2023/04/07 00:13:46;;;;;;;20.33;14.82;;;;;;;;;;5047459;28;20918;-80
2023/04/07 00:16:12;;;;;;;18.52;14.07;;;;;;;;;;5068688;28;20420;-81
2023/04/07 00:18:39;;;;;;;21.02;14.20;;;;;;;;;;5067852;28;20419;-81
2023/04/07 00:21:05;;;;;;;22.00;14.90;;;;;;;;;;5064834;28;20496;-81
2023/04/07 00:23:31;;;;;;;20.13;14.77;;;;;;;;;;5065792;28;20427;-80
2023/04/07 00:25:58;;;;;;;19.90;14.77;;;;;;;;;;5063098;28;20433;-81
2023/04/07 00:28:24;;;;;;;18.80;14.45;;;;;;;;;;5064839;28;20419;-81
2023/04/07 00:30:52;;;;;;;17.83;13.73;;;;;;;;;;5049355;28;20436;-80
2023/04/07 00:33:19;;;;;;;18.00;14.77;;;;;;;;;;5065886;28;20430;-80
2023/04/07 00:35:45;;;;;;;21.00;15.40;;;;;;;;;;5066005;28;20951;-81
2023/04/07 00:38:12;;;;;;;18.50;14.93;;;;;;;;;;5065821;28;20416;-80
2023/04/07 00:40:38;;;;;;;17.70;14.02;;;;;;;;;;5064489;28;20436;-81
2023/04/07 00:43:04;;;;;;;21.27;15.20;;;;;;;;;;5061534;28;20425;-81
2023/04/07 00:45:31;;;;;;;18.80;15.00;;;;;;;;;;5063486;28;20924;-80
2023/04/07 00:47:59;;;;;;;19.10;14.88;;;;;;;;;;5064128;28;20952;-81
2023/04/07 00:50:25;;;;;;;21.58;15.85;;;;;;;;;;5064363;28;20789;-80
2023/04/07 00:52:51;;;;;;;17.50;14.60;;;;;;;;;;5065555;28;20415;-80
2023/04/07 00:55:18;;;;;;;20.40;14.73;;;;;;;;;;5065295;28;20781;-80
2023/04/07 00:57:45;;;;;;;20.58;15.50;;;;;;;;;;5063717;28;20420;-80
2023/04/07 01:00:12;;;;;;;22.23;15.63;;;;;;;;;;5063361;28;20488;-80
2023/04/07 01:02:41;;;;;;;19.73;15.73;;;;;;;;;;5059348;28;20411;-80
2023/04/07 01:05:17;;;;;;;21.50;15.93;;;;;;;;;;5058447;28;20409;-80
2023/04/07 01:07:48;;;;;;;22.38;17.02;;;;;;;;;;5060119;28;20506;-80
2023/04/07 01:10:18;;;;;;;20.70;15.65;;;;;;;;;;5061453;28;20417;-80
2023/04/07 01:12:47;;;;;;;24.40;16.65;;;;;;;;;;5062062;28;20417;-80
2023/04/07 01:15:15;;;;;;;22.63;16.17;;;;;;;;;;5064319;28;20414;-80
2023/04/07 01:17:44;;;;;;;24.33;17.43;;;;;;;;;;5064191;28;20523;-80
2023/04/07 01:20:13;;;;;;;22.77;16.65;;;;;;;;;;5063201;28;20503;-80
2023/04/07 01:22:41;;;;;;;21.88;16.23;;;;;;;;;;5063333;28;20416;-80
2023/04/07 01:25:18;;;;;;;21.50;16.98;;;;;;;;;;5065502;28;20948;-80
2023/04/07 01:27:49;;;;;;;20.45;16.10;;;;;;;;;;5064007;28;20927;-80
2023/04/07 01:30:17;;;;;;;21.55;16.02;;;;;;;;;;5060455;28;20419;-80
2023/04/07 01:32:45;;;;;;;21.35;16.20;;;;;;;;;;5059255;28;20429;-80
2023/04/07 01:35:13;;;;;;;21.50;16.08;;;;;;;;;;5062321;28;20786;-80
2023/04/07 01:37:40;;;;;;;23.10;16.17;;;;;;;;;;5058987;28;20412;-80
2023/04/07 01:40:07;;;;;;;21.52;17.05;;;;;;;;;;5046800;28;20591;-80
2023/04/07 01:42:34;;;;;;;20.20;16.53;;;;;;;;;;5061193;28;20420;-81
2023/04/07 01:45:01;;;;;;;19.77;15.80;;;;;;;;;;5044769;28;20425;-80
2023/04/07 01:47:30;;;;;;;18.45;15.63;;;;;;;;;;5060338;28;20405;-78
2023/04/07 01:49:57;;;;;;;21.63;16.90;;;;;;;;;;5066978;28;20461;-79
2023/04/07 01:52:23;;;;;;;23.98;16.40;;;;;;;;;;5055956;28;20414;-79
2023/04/07 01:54:50;;;;;;;22.58;16.38;;;;;;;;;;5061382;28;20416;-79
2023/04/07 01:57:16;;;;;;;21.60;17.33;;;;;;;;;;5064084;28;20816;-79
2023/04/07 01:59:43;;;;;;;20.35;16.48;;;;;;;;;;5062454;28;20428;-80
2023/04/07 02:02:09;;;;;;;22.55;17.83;;;;;;;;;;5063789;28;20417;-79
2023/04/07 02:04:40;;;;;;;23.63;17.02;;;;;;;;;;5062839;28;20419;-79
2023/04/07 02:07:09;;;;;;;20.88;15.90;;;;;;;;;;5067202;28;20411;-81
2023/04/07 02:09:38;;;;;;;21.83;16.75;;;;;;;;;;5065392;28;20415;-80
2023/04/07 02:12:07;;;;;;;20.60;16.67;;;;;;;;;;5066127;28;20410;-80
2023/04/07 02:14:33;;;;;;;25.75;17.38;;;;;;;;;;5067210;28;20407;-79
2023/04/07 02:17:01;;;;;;;21.08;16.35;;;;;;;;;;5070018;28;20407;-79
2023/04/07 02:19:29;;;;;;;20.15;16.20;;;;;;;;;;5066468;28;20484;-81
2023/04/07 02:21:57;;;;;;;19.48;15.77;;;;;;;;;;5063158;28;20424;-78
2023/04/07 02:24:23;;;;;;;22.63;16.50;;;;;;;;;;5066617;28;20506;-81
2023/04/07 02:26:50;;;;;;;25.40;16.52;;;;;;;;;;5062230;28;20830;-80
2023/04/07 02:29:16;;;;;;;20.58;16.90;;;;;;;;;;5064594;28;20417;-80
2023/04/07 02:31:42;;;;;;;19.87;15.83;;;;;;;;;;5067784;28;20916;-80
2023/04/07 02:34:09;;;;;;;24.40;16.63;;;;;;;;;;5065564;28;20431;-81
2023/04/07 02:36:35;;;;;;;18.85;15.68;;;;;;;;;;5067014;28;20518;-80
2023/04/07 02:39:03;;;;;;;22.48;16.38;;;;;;;;;;5047115;28;20406;-81
2023/04/07 02:41:30;;;;;;;24.77;17.20;;;;;;;;;;5045873;28;20774;-79
2023/04/07 02:43:56;;;;;;;19.95;15.50;;;;;;;;;;5047689;28;20426;-79
2023/04/07 02:46:23;;;;;;;23.23;16.90;;;;;;;;;;5045625;28;20425;-81
2023/04/07 02:48:49;;;;;;;20.77;17.38;;;;;;;;;;5063708;28;20438;-79
2023/04/07 02:51:15;;;;;;;20.52;16.50;;;;;;;;;;5067207;28;20508;-79
2023/04/07 02:53:42;;;;;;;21.20;17.08;;;;;;;;;;5065555;28;20438;-81
2023/04/07 02:56:11;;;;;;;21.63;16.00;;;;;;;;;;5065404;28;20425;-79
2023/04/07 02:58:37;;;;;;;20.92;16.65;;;;;;;;;;5064968;28;20420;-79
2023/04/07 03:01:04;;;;;;;22.60;17.50;;;;;;;;;;5065422;28;20793;-81
2023/04/07 03:03:31;;;;;;;20.80;16.50;;;;;;;;;;5064950;28;20931;-81
2023/04/07 03:05:58;;;;;;;20.58;16.15;;;;;;;;;;5064745;28;20435;-81
2023/04/07 03:08:24;;;;;;;21.40;16.10;;;;;;;;;;5064927;28;20431;-81
2023/04/07 03:10:51;;;;;;;21.63;16.50;;;;;;;;;;5064640;28;20427;-80
2023/04/07 03:13:21;;;;;;;21.90;16.35;;;;;;;;;;5067680;28;20424;-81
2023/04/07 03:15:47;;;;;;;20.65;16.58;;;;;;;;;;5062961;28;20440;-81
2023/04/07 03:18:14;;;;;;;21.13;16.98;;;;;;;;;;5063987;28;20421;-81
2023/04/07 03:20:41;;;;;;;20.08;16.73;;;;;;;;;;5063717;28;20927;-81
2023/04/07 03:23:07;;;;;;;21.17;17.13;;;;;;;;;;5062947;28;20443;-81
2023/04/07 03:25:34;;;;;;;22.80;16.02;;;;;;;;;;5064289;28;20905;-81
2023/04/07 03:28:00;;;;;;;19.60;16.30;;;;;;;;;;5064569;28;20464;-81
2023/04/07 03:30:27;;;;;;;17.88;15.68;;;;;;;;;;5066244;28;20437;-81
2023/04/07 03:32:54;;;;;;;17.40;15.00;;;;;;;;;;5060806;28;20853;-81
2023/04/07 03:35:22;;;;;;;21.25;16.10;;;;;;;;;;5066946;28;20794;-81
2023/04/07 03:37:48;;;;;;;18.63;16.35;;;;;;;;;;5068184;28;20411;-81
2023/04/07 03:40:14;;;;;;;18.67;16.60;;;;;;;;;;5065822;28;20413;-81
2023/04/07 03:42:41;;;;;;;20.95;15.95;;;;;;;;;;5064308;28;20414;-81
2023/04/07 03:45:08;;;;;;;19.25;15.70;;;;;;;;;;5063329;28;20417;-80
2023/04/07 03:47:36;;;;;;;21.80;16.45;;;;;;;;;;5062896;28;20786;-81
2023/04/07 03:50:03;;;;;;;17.67;15.23;;;;;;;;;;5062292;28;20422;-79
2023/04/07 03:52:29;;;;;;;18.85;16.85;;;;;;;;;;5063616;28;20416;-81
2023/04/07 03:54:56;;;;;;;21.75;16.20;;;;;;;;;;5064844;28;20881;-81
2023/04/07 03:57:22;;;;;;;20.30;16.65;;;;;;;;;;5046403;28;20406;-79
2023/04/07 03:59:50;;;;;;;20.38;16.83;;;;;;;;;;5060281;28;20947;-79
2023/04/07 04:02:16;;;;;;;17.70;15.70;;;;;;;;;;5063248;28;20418;-80
2023/04/07 04:04:44;;;;;;;19.60;15.80;;;;;;;;;;5062795;28;20802;-81
2023/04/07 04:07:10;;;;;;;19.63;16.73;;;;;;;;;;5065874;28;20403;-81
2023/04/07 04:09:36;;;;;;;21.35;16.27;;;;;;;;;;5063962;28;20423;-81
2023/04/07 04:12:03;;;;;;;22.15;16.20;;;;;;;;;;5061767;28;21045;-81
2023/04/07 04:14:29;;;;;;;21.45;16.65;;;;;;;;;;5065999;28;20436;-81
2023/04/07 04:16:56;;;;;;;23.30;16.97;;;;;;;;;;5065190;28;22736;-80
2023/04/07 04:19:22;;;;;;;20.88;16.92;;;;;;;;;;5062111;28;20437;-79
2023/04/07 04:21:50;;;;;;;20.48;17.42;;;;;;;;;;5065396;28;20425;-80
2023/04/07 04:24:17;;;;;;;22.50;16.60;;;;;;;;;;5063561;28;20409;-81
2023/04/07 04:26:43;;;;;;;21.13;16.50;;;;;;;;;;5061650;28;20430;-81
2023/04/07 04:29:10;;;;;;;21.00;16.98;;;;;;;;;;5045622;28;20912;-81
2023/04/07 04:31:36;;;;;;;21.40;18.02;;;;;;;;;;5060777;28;20460;-81
2023/04/07 04:34:02;;;;;;;20.17;16.80;;;;;;;;;;5065261;28;20431;-79
2023/04/07 04:36:30;;;;;;;21.40;17.63;;;;;;;;;;5062549;28;20424;-81
2023/04/07 04:38:57;;;;;;;21.23;16.90;;;;;;;;;;5061568;28;20427;-81
2023/04/07 04:41:24;;;;;;;18.67;16.13;;;;;;;;;;5063034;28;20439;-81
2023/04/07 04:43:50;;;;;;;18.45;16.42;;;;;;;;;;5059944;28;20430;-80
2023/04/07 04:46:17;;;;;;;19.23;16.70;;;;;;;;;;5065242;28;20427;-79
2023/04/07 04:48:43;;;;;;;18.73;16.50;;;;;;;;;;5058096;28;20450;-81
2023/04/07 04:51:09;;;;;;;22.40;17.45;;;;;;;;;;5063823;28;20424;-81
2023/04/07 04:53:36;;;;;;;21.13;17.02;;;;;;;;;;5060853;28;20423;-81
2023/04/07 04:56:04;;;;;;;19.80;16.92;;;;;;;;;;5044280;28;20490;-81
2023/04/07 04:58:31;;;;;;;21.88;17.73;;;;;;;;;;5058039;28;20444;-81
2023/04/07 05:00:59;;;;;;;21.67;17.02;;;;;;;;;;5060584;28;21717;-81
2023/04/07 05:03:25;;;;;;;20.88;17.85;;;;;;;;;;5060446;28;20962;-81
2023/04/07 05:05:51;;;;;;;20.00;16.98;;;;;;;;;;5061757;28;20978;-81
2023/04/07 05:08:18;;;;;;;21.58;17.35;;;;;;;;;;5062382;28;20428;-81
2023/04/07 05:10:44;;;;;;;19.00;16.83;;;;;;;;;;5043674;28;21272;-81
2023/04/07 05:13:12;;;;;;;21.23;16.17;;;;;;;;;;5061347;28;20430;-80
2023/04/07 05:15:41;;;;;;;21.85;17.10;;;;;;;;;;5063173;28;20438;-81
2023/04/07 05:18:07;;;;;;;20.13;16.95;;;;;;;;;;5061545;28;21157;-81
2023/04/07 05:20:33;;;;;;;22.05;17.63;;;;;;;;;;5059717;28;20423;-80
2023/04/07 05:23:02;;;;;;;19.42;17.13;;;;;;;;;;5062660;28;20839;-80
2023/04/07 05:25:28;;;;;;;19.50;16.67;;;;;;;;;;5048513;28;20445;-81
2023/04/07 05:27:55;;;;;;;21.40;17.75;;;;;;;;;;5062707;28;20432;-81
2023/04/07 05:30:22;;;;;;;19.02;16.90;;;;;;;;;;5063691;28;20531;-81
2023/04/07 05:32:49;;;;;;;22.00;18.05;;;;;;;;;;5060534;28;21060;-79
2023/04/07 05:35:16;;;;;;;21.58;17.35;;;;;;;;;;5061912;28;20433;-80
2023/04/07 05:37:42;;;;;;;22.45;18.13;;;;;;;;;;5062248;28;20433;-81
2023/04/07 05:40:09;;;;;;;22.40;18.38;;;;;;;;;;5059956;28;20917;-81
2023/04/07 05:42:35;;;;;;;20.38;17.08;;;;;;;;;;5060017;28;20844;-81
2023/04/07 05:45:02;;;;;;;22.60;19.60;;;;;;;;;;5060798;28;20413;-81
2023/04/07 05:47:30;;;;;;;20.83;18.23;;;;;;;;;;5063161;28;20415;-81
2023/04/07 05:49:56;;;;;;;23.00;18.98;;;;;;;;;;5056522;28;20453;-81
2023/04/07 05:52:22;;;;;;;21.58;17.83;;;;;;;;;;5060218;28;20425;-81
2023/04/07 05:54:50;;;;;;;21.65;17.85;;;;;;;;;;5052094;28;20484;-79
2023/04/07 05:57:16;;;;;;;21.15;17.75;;;;;;;;;;5066521;28;20415;-81
2023/04/07 05:59:42;;;;;;;22.70;18.25;;;;;;;;;;5066862;28;20948;-81
2023/04/07 06:02:09;;;;;;;21.33;18.23;;;;;;;;;;5061750;28;20408;-79
2023/04/07 06:04:38;;;;;;;20.33;17.23;;;;;;;;;;5062362;28;20448;-79
2023/04/07 06:07:04;;;;;;;22.98;18.33;;;;;;;;;;5060074;28;20418;-79
2023/04/07 06:09:31;;;;;;;22.35;17.50;;;;;;;;;;5066632;28;20412;-80
2023/04/07 06:11:57;;;;;;;20.65;17.95;;;;;;;;;;5062883;28;20424;-79
2023/04/07 06:14:24;;;;;;;21.13;17.25;;;;;;;;;;5063263;28;20427;-81
2023/04/07 06:16:51;;;;;;;21.77;18.17;;;;;;;;;;5058543;28;20949;-80
2023/04/07 06:19:17;;;;;;;20.38;17.02;;;;;;;;;;5061098;28;20922;-81
2023/04/07 06:21:46;;;;;;;21.83;16.80;;;;;;;;;;5042929;28;20421;-81
2023/04/07 06:24:12;;;;;;;19.73;17.10;;;;;;;;;;5063365;28;20423;-80
2023/04/07 06:26:39;;;;;;;20.83;17.08;;;;;;;;;;5062743;28;20430;-81
2023/04/07 06:29:06;;;;;;;19.48;16.75;;;;;;;;;;5061820;28;20924;-80
2023/04/07 06:31:32;;;;;;;20.00;17.25;;;;;;;;;;5063278;28;20480;-79
2023/04/07 06:33:59;;;;;;;17.93;16.00;;;;;;;;;;5061345;28;20439;-79
2023/04/07 06:36:26;;;;;;;21.75;17.45;;;;;;;;;;5061154;28;20435;-81
2023/04/07 06:38:54;;;;;;;21.08;17.20;;;;;;;;;;5062569;28;20450;-79
2023/04/07 06:41:20;;;;;;;22.02;17.60;;;;;;;;;;5063623;28;20477;-79
2023/04/07 06:43:47;;;;;;;20.23;16.98;;;;;;;;;;5061039;28;21175;-79
2023/04/07 06:46:14;;;;;;;19.45;16.90;;;;;;;;;;5063489;28;20674;-80
2023/04/07 06:48:40;;;;;;;19.83;17.20;;;;;;;;;;5066741;28;20824;-81
2023/04/07 06:51:07;;;;;;;18.05;15.95;;;;;;;;;;5064924;28;20431;-81
2023/04/07 06:53:33;;;;;;;20.67;17.20;;;;;;;;;;5067047;28;20423;-81
2023/04/07 06:56:04;;;;;;;19.20;17.20;;;;;;;;;;5049117;28;20426;-81
2023/04/07 06:58:33;;;;;;;20.75;16.65;;;;;;;;;;5047027;28;20440;-81
2023/04/07 07:01:00;;;;;;;19.73;16.13;;;;;;;;;;5066205;28;20423;-81
2023/04/07 07:03:28;;;;;;;19.77;15.63;;;;;;;;;;5063887;28;20409;-81
2023/04/07 07:05:56;;;;;;;19.98;16.88;;;;;;;;;;5067881;28;20803;-80
2023/04/07 07:08:23;;;;;;;20.77;16.00;;;;;;;;;;5066021;28;20425;-80
2023/04/07 07:10:49;;;;;;;21.63;16.80;;;;;;;;;;5066677;28;20436;-79
2023/04/07 07:13:17;;;;;;;20.38;15.75;;;;;;;;;;5065720;28;20423;-79
2023/04/07 07:15:44;;;;;;;18.90;15.63;;;;;;;;;;5065912;28;20682;-79
2023/04/07 07:18:11;;;;;;;18.75;16.23;;;;;;;;;;5065710;28;20419;-80
2023/04/07 07:20:37;;;;;;;20.00;17.27;;;;;;;;;;5065718;28;20417;-79
2023/04/07 07:23:06;;;;;;;19.08;15.73;;;;;;;;;;5042884;28;20408;-80
2023/04/07 07:25:32;;;;;;;18.00;14.80;;;;;;;;;;5066370;28;20468;-79
2023/04/07 07:27:58;;;;;;;17.30;15.48;;;;;;;;;;5064556;28;20415;-79
2023/04/07 07:30:26;;;;;;;18.73;14.93;;;;;;;;;;5047152;28;20414;-80
2023/04/07 07:32:53;;;;;;;18.38;16.05;;;;;;;;;;5063342;28;20411;-80
2023/04/07 07:35:20;;;;;;;17.10;15.30;;;;;;;;;;5059604;28;20414;-79
2023/04/07 07:37:46;;;;;;;17.20;15.20;;;;;;;;;;5064363;28;20419;-80
2023/04/07 07:40:13;;;;;;;19.77;15.45;;;;;;;;;;5064452;28;20413;-79
2023/04/07 07:42:39;;;;;;;21.23;15.32;;;;;;;;;;5061546;28;20425;-80
2023/04/07 07:45:06;;;;;;;17.75;14.75;;;;;;;;;;5061518;28;20511;-79
2023/04/07 07:47:36;;;;;;;19.60;15.00;;;;;;;;;;5047523;28;20423;-80
2023/04/07 07:50:02;;;;;;;18.58;15.30;;;;;;;;;;5062059;28;20947;-79
2023/04/07 07:52:29;;;;;;;16.23;14.52;;;;;;;;;;5062448;28;20507;-79
2023/04/07 07:54:55;;;;;;;19.10;14.60;;;;;;;;;;5049240;28;20419;-78
2023/04/07 07:57:22;;;;;;;17.92;15.68;;;;;;;;;;5066591;28;20412;-78
2023/04/07 07:59:48;;;;;;;16.85;14.77;;;;;;;;;;5063036;28;20417;-78
2023/04/07 08:02:15;;;;;;;18.00;14.43;;;;;;;;;;5043425;28;20818;-78
2023/04/07 08:04:43;;;;;;;19.20;13.45;;;;;;;;;;5061708;28;20421;-79
2023/04/07 08:07:10;;;;;;;18.52;14.80;;;;;;;;;;5064025;28;20903;-80
2023/04/07 08:09:36;;;;;;;18.10;15.20;;;;;;;;;;5063238;28;20466;-80
2023/04/07 08:12:03;;;;;;;15.52;13.93;;;;;;;;;;5060757;28;20418;-79
2023/04/07 08:14:29;;;;;;;16.58;14.63;;;;;;;;;;5046208;28;20911;-80
2023/04/07 08:16:56;;;;;;;16.73;14.18;;;;;;;;;;5062383;28;20421;-78
2023/04/07 08:19:22;;;;;;;16.17;14.30;;;;;;;;;;5064361;28;20419;-78
2023/04/07 08:21:50;;;;;;;15.30;13.50;;;;;;;;;;5061238;28;20484;-79
2023/04/07 08:24:17;;;;;;;14.70;12.40;;;;;;;;;;5043176;28;20418;-79
2023/04/07 08:26:44;;;;;;;15.25;12.95;;;;;;;;;;5063849;28;20425;-78
2023/04/07 08:29:10;;;;;;;17.90;13.30;;;;;;;;;;5058938;28;20520;-78
2023/04/07 08:31:37;;;;;;;13.90;12.40;;;;;;;;;;5061474;28;20434;-80
2023/04/07 08:34:03;;;;;;;15.40;13.00;;;;;;;;;;5064391;28;20805;-79
2023/04/07 08:36:30;;;;;;;13.80;12.30;;;;;;;;;;5058918;28;20424;-80
2023/04/07 08:39:00;;;;;;;14.88;12.43;;;;;;;;;;5043609;28;20419;-79
2023/04/07 08:41:29;;;;;;;14.82;12.40;;;;;;;;;;5061862;28;20506;-79
2023/04/07 08:43:57;;;;;;;13.98;11.77;;;;;;;;;;5060927;28;20910;-79
2023/04/07 08:46:26;;;;;;;13.95;12.05;;;;;;;;;;5063646;28;20418;-78
2023/04/07 08:48:52;;;;;;;15.37;12.67;;;;;;;;;;5061196;28;20913;-79
2023/04/07 08:51:23;;;;;;;15.77;12.57;;;;;;;;;;5061913;28;20905;-79
2023/04/07 08:53:51;;;;;;;15.10;11.98;;;;;;;;;;5047113;28;20461;-79
2023/04/07 08:56:21;;;;;;;15.25;12.13;;;;;;;;;;5061322;28;20508;-79
2023/04/07 08:58:47;;;;;;;15.43;12.15;;;;;;;;;;5061746;28;20417;-79
2023/04/07 09:01:16;;;;;;;13.80;12.40;;;;;;;;;;5062442;28;20415;-80
2023/04/07 09:03:44;;;;;;;13.00;11.70;;;;;;;;;;5061134;28;20416;-77
2023/04/07 09:06:11;;;;;;;13.20;11.30;;;;;;;;;;5060587;28;20787;-78
2023/04/07 09:08:37;;;;;;;13.40;12.00;;;;;;;;;;5063223;28;20464;-79
2023/04/07 09:11:04;;;;;;;16.70;12.70;;;;;;;;;;5060358;28;20434;-80
2023/04/07 09:13:32;;;;;;;13.73;11.63;;;;;;;;;;5059911;28;20428;-84
2023/04/07 09:15:59;;;;;;;13.40;12.00;;;;;;;;;;5047784;28;20426;-79
2023/04/07 09:18:28;;;;;;;16.30;12.43;;;;;;;;;;5054079;28;20954;-79
2023/04/07 09:20:57;;;;;;;13.38;11.93;;;;;;;;;;5065767;28;20624;-79
2023/04/07 09:23:28;;;;;;;12.35;11.05;;;;;;;;;;5066194;28;20776;-78
2023/04/07 09:25:54;;;;;;;13.80;11.88;;;;;;;;;;5067683;28;20438;-78
2023/04/07 09:28:21;;;;;;;12.77;11.43;;;;;;;;;;5064426;28;20430;-78
2023/04/07 09:30:54;;;;;;;13.95;11.30;;;;;;;;;;5063454;28;20865;-78
2023/04/07 09:33:27;;;;;;;15.65;12.02;;;;;;;;;;5063947;28;20471;-78
2023/04/07 09:35:53;;;;;;;13.20;11.80;;;;;;;;;;5062007;28;20419;-78
2023/04/07 09:38:20;;;;;;;13.43;11.73;;;;;;;;;;5066142;28;20478;-78
2023/04/07 09:40:47;;;;;;;12.75;11.27;;;;;;;;;;5059175;28;20421;-78
2023/04/07 09:43:17;;;;;;;11.57;10.25;;;;;;;;;;5064200;28;20952;-78
2023/04/07 09:45:43;;;;;;;12.50;11.10;;;;;;;;;;5063499;28;20431;-79
2023/04/07 09:48:18;;;;;;;12.70;11.23;;;;;;;;;;5064553;28;20433;-78
2023/04/07 09:50:48;;;;;;;12.75;10.57;;;;;;;;;;5064848;28;20419;-78
2023/04/07 09:53:15;;;;;;;12.80;10.88;;;;;;;;;;5063224;28;20435;-78
2023/04/07 09:55:42;;;;;;;12.13;10.27;;;;;;;;;;5063866;28;20502;-78
2023/04/07 09:58:09;;;;;;;13.57;11.27;;;;;;;;;;5068187;28;20507;-78
2023/04/07 10:00:37;;;;;;;13.00;10.23;;;;;;;;;;5065146;28;20423;-78
2023/04/07 10:03:04;;;;;;;13.47;10.80;;;;;;;;;;5049419;28;20470;-78
2023/04/07 10:05:32;;;;;;;13.05;10.15;;;;;;;;;;5066302;28;20421;-78
2023/04/07 10:08:00;;;;;;;14.60;11.05;;;;;;;;;;5067018;28;20496;-78
2023/04/07 10:10:27;;;;;;;13.30;11.40;;;;;;;;;;5066110;28;20423;-78
2023/04/07 10:12:54;;;;;;;12.13;10.50;;;;;;;;;;5046627;28;20446;-78
2023/04/07 10:15:21;;;;;;;12.10;9.98;;;;;;;;;;5062079;28;20420;-80
2023/04/07 10:17:48;;;;;;;12.18;10.80;;;;;;;;;;5059707;28;20506;-79
2023/04/07 10:20:15;;;;;;;12.60;11.00;;;;;;;;;;5044016;28;20425;-81
2023/04/07 10:22:44;;;;;;;15.05;10.48;;;;;;;;;;5063629;28;20431;-80
2023/04/07 10:25:12;;;;;;;12.10;10.80;;;;;;;;;;5069964;28;20419;-79
2023/04/07 10:27:41;;;;;;;12.02;10.43;;;;;;;;;;5066693;28;20977;-80
2023/04/07 10:30:13;;;;;;;12.82;11.05;;;;;;;;;;5064084;28;20936;-80
2023/04/07 10:32:46;;;;;;;13.23;10.80;;;;;;;;;;5070370;28;20515;-79
2023/04/07 10:35:12;;;;;;;14.23;11.32;;;;;;;;;;5048107;28;20429;-78
2023/04/07 10:37:39;;;;;;;11.98;10.38;;;;;;;;;;5069693;28;20811;-78
2023/04/07 10:40:32;;;;;;;11.38;10.15;;;;;;;;;;5066447;28;20456;-79
2023/04/07 10:43:00;;;;;;;11.55;10.27;;;;;;;;;;5009146;28;20423;-79
2023/04/07 10:45:44;;;;;;;13.63;11.23;;;;;;;;;;5059279;28;20425;-79
2023/04/07 10:48:12;;;;;;;12.68;10.07;;;;;;;;;;5070166;28;20785;-79
2023/04/07 10:50:38;;;;;;;11.82;10.57;;;;;;;;;;5065602;28;20411;-78
2023/04/07 10:53:07;;;;;;;15.53;11.20;;;;;;;;;;5068741;28;20430;-78
2023/04/07 10:55:34;;;;;;;13.68;10.50;;;;;;;;;;5032330;28;20431;-78
2023/04/07 10:58:16;;;;;;;13.80;11.10;;;;;;;;;;5050375;28;20431;-78
2023/04/07 11:00:43;;;;;;;11.32;10.02;;;;;;;;;;5069268;28;20419;-80
2023/04/07 11:03:11;;;;;;;12.35;10.93;;;;;;;;;;5065975;28;20505;-80
2023/04/07 11:05:38;;;;;;;14.65;11.27;;;;;;;;;;5066542;28;20499;-80
2023/04/07 11:08:05;;;;;;;13.20;10.70;;;;;;;;;;5066173;28;20489;-77
2023/04/07 11:10:32;;;;;;;11.17;10.03;;;;;;;;;;5065802;28;20424;-80
2023/04/07 11:13:02;;;;;;;12.60;11.27;;;;;;;;;;5064841;28;20418;-82
2023/04/07 11:15:30;;;;;;;11.00;9.80;;;;;;;;;;5070066;28;20475;-79
2023/04/07 11:18:06;;;;;;;12.90;11.50;;;;;;;;;;5066777;28;20426;-78
2023/04/07 11:20:40;;;;;;;12.52;11.23;;;;;;;;;;5067551;28;20520;-80
2023/04/07 11:23:07;;;;;;;13.77;10.05;;;;;;;;;;5062024;28;20415;-80
2023/04/07 11:25:34;;;;;;;13.35;10.32;;;;;;;;;;5049761;28;20439;-78
2023/04/07 11:28:00;;;;;;;13.38;10.90;;;;;;;;;;5065326;28;20449;-80
2023/04/07 11:30:27;;;;;;;14.48;11.27;;;;;;;;;;5062480;28;20427;-80
2023/04/07 11:32:55;;;;;;;12.40;10.07;;;;;;;;;;5064056;28;20456;-80
2023/04/07 11:35:22;;;;;;;13.93;10.55;;;;;;;;;;5059550;28;20512;-79
2023/04/07 11:37:48;;;;;;;12.63;10.00;;;;;;;;;;5065419;28;20430;-79
2023/04/07 11:40:31;;;;;;;14.25;11.00;;;;;;;;;;5064179;28;20429;-79
2023/04/07 11:42:57;;;;;;;14.50;10.80;;;;;;;;;;5065264;28;20443;-78
2023/04/07 11:45:24;;;;;;;13.68;10.77;;;;;;;;;;5065028;28;20433;-78
2023/04/07 11:47:50;;;;;;;13.15;10.50;;;;;;;;;;5068458;28;20432;-80
2023/04/07 11:50:37;;;;;;;13.10;11.30;;;;;;;;;;5064738;28;20458;-79
2023/04/07 11:53:04;;;;;;;11.63;10.43;;;;;;;;;;5064615;28;20423;-79
2023/04/07 11:55:30;;;;;;;14.23;11.40;;;;;;;;;;5066387;28;20420;-79
2023/04/07 11:58:05;;;;;;;12.52;11.23;;;;;;;;;;5065796;28;20438;-79
2023/04/07 12:00:31;;;;;;;13.10;11.02;;;;;;;;;;5062232;28;20424;-79
2023/04/07 12:03:08;;;;;;;12.32;10.07;;;;;;;;;;5065292;28;20424;-80
2023/04/07 12:05:43;;;;;;;12.93;10.65;;;;;;;;;;5044891;28;20471;-77
2023/04/07 12:08:09;;;;;;;12.85;10.50;;;;;;;;;;5061790;28;20438;-78
2023/04/07 12:10:39;;;;;;;13.23;10.32;;;;;;;;;;5063808;28;20423;-78
2023/04/07 12:13:07;;;;;;;14.88;11.43;;;;;;;;;;5029483;28;20421;-78
2023/04/07 12:15:33;;;;;;;12.95;10.55;;;;;;;;;;5065330;28;20419;-79
2023/04/07 12:17:59;;;;;;;13.43;11.00;;;;;;;;;;5061280;28;20434;-79
2023/04/07 12:20:26;;;;;;;13.25;10.43;;;;;;;;;;5062700;28;20460;-79
2023/04/07 12:22:54;;;;;;;14.50;11.90;;;;;;;;;;5064407;28;20435;-78
2023/04/07 12:25:21;;;;;;;12.85;10.68;;;;;;;;;;5063539;28;20421;-78
2023/04/07 12:27:47;;;;;;;12.75;10.43;;;;;;;;;;5047273;28;20426;-79
2023/04/07 12:30:14;;;;;;;14.70;10.33;;;;;;;;;;5061025;28;20803;-79
2023/04/07 12:32:40;;;;;;;12.82;10.32;;;;;;;;;;5063357;28;20805;-79
2023/04/07 12:35:07;;;;;;;13.95;11.07;;;;;;;;;;5064209;28;20515;-79
2023/04/07 12:37:34;;;;;;;13.40;11.10;;;;;;;;;;5066656;28;20413;-80
2023/04/07 12:40:02;;;;;;;14.10;11.55;;;;;;;;;;5064598;28;20921;-79
2023/04/07 12:42:28;;;;;;;13.00;10.77;;;;;;;;;;5064460;28;20431;-79
2023/04/07 12:44:55;;;;;;;14.73;11.57;;;;;;;;;;5061806;28;20918;-79
2023/04/07 12:47:21;;;;;;;12.70;10.63;;;;;;;;;;5047379;28;20910;-79
2023/04/07 12:49:48;;;;;;;13.07;10.52;;;;;;;;;;5062872;28;20429;-78
2023/04/07 12:52:15;;;;;;;12.77;10.07;;;;;;;;;;5064833;28;20446;-78
2023/04/07 12:54:41;;;;;;;13.18;10.70;;;;;;;;;;5059588;28;20427;-78
2023/04/07 12:57:09;;;;;;;13.75;11.10;;;;;;;;;;5065905;28;20510;-78
2023/04/07 12:59:36;;;;;;;12.50;10.40;;;;;;;;;;5063236;28;20421;-79
2023/04/07 13:02:02;;;;;;;12.93;11.20;;;;;;;;;;5061108;28;20423;-79
2023/04/07 13:04:30;;;;;;;13.48;11.02;;;;;;;;;;5061170;28;20439;-78
2023/04/07 13:06:56;;;;;;;13.38;10.10;;;;;;;;;;5066551;28;20437;-78
2023/04/07 13:09:23;;;;;;;13.35;10.63;;;;;;;;;;5059091;28;20441;-79
2023/04/07 13:11:49;;;;;;;12.63;10.38;;;;;;;;;;5062663;28;20823;-79
2023/04/07 13:14:17;;;;;;;12.80;10.25;;;;;;;;;;5059548;28;20413;-79
2023/04/07 13:16:43;;;;;;;11.90;10.18;;;;;;;;;;5065972;28;20423;-78
2023/04/07 13:19:10;;;;;;;11.10;9.60;;;;;;;;;;5065017;28;20413;-79
2023/04/07 13:21:36;;;;;;;11.60;10.27;;;;;;;;;;5064313;28;20432;-77
2023/04/07 13:24:03;;;;;;;11.73;10.00;;;;;;;;;;5062277;28;20413;-79
2023/04/07 13:26:30;;;;;;;13.05;9.80;;;;;;;;;;5066092;28;20995;-79
2023/04/07 13:28:56;;;;;;;12.45;9.40;;;;;;;;;;5061286;28;20414;-79
2023/04/07 13:31:24;;;;;;;11.95;9.35;;;;;;;;;;5061723;28;20436;-79
2023/04/07 13:33:52;;;;;;;11.38;9.15;;;;;;;;;;5061526;28;20417;-79
2023/04/07 13:36:18;;;;;;;9.48;8.45;;;;;;;;;;5045080;28;20432;-78
2023/04/07 13:38:45;;;;;;;12.05;9.77;;;;;;;;;;5063085;28;20801;-79
2023/04/07 13:41:11;;;;;;;9.65;8.65;;;;;;;;;;5046183;28;20896;-79
2023/04/07 13:43:39;;;;;;;10.10;8.85;;;;;;;;;;5060753;28;20419;-79
2023/04/07 13:46:05;;;;;;;10.25;8.95;;;;;;;;;;5062873;28;20424;-79
2023/04/07 13:48:35;;;;;;;9.80;8.80;;;;;;;;;;5059180;28;20425;-79
2023/04/07 13:51:01;;;;;;;10.30;8.48;;;;;;;;;;5064289;28;20427;-79
2023/04/07 13:53:27;;;;;;;10.35;9.25;;;;;;;;;;5060521;28;20432;-79
2023/04/07 13:55:54;;;;;;;10.68;8.02;;;;;;;;;;5045373;28;20458;-79
2023/04/07 13:58:20;;;;;;;10.30;8.30;;;;;;;;;;5066858;28;20455;-79
2023/04/07 14:00:46;;;;;;;9.35;7.57;;;;;;;;;;5053718;28;20427;-79
2023/04/07 14:03:13;;;;;;;9.40;8.40;;;;;;;;;;5069511;28;20430;-79
2023/04/07 14:05:40;;;;;;;9.82;7.72;;;;;;;;;;5066460;28;20424;-79
2023/04/07 14:08:07;;;;;;;9.60;8.30;;;;;;;;;;5069531;28;20981;-79
2023/04/07 14:10:35;;;;;;;8.90;7.93;;;;;;;;;;5066842;28;20427;-79
2023/04/07 14:13:01;;;;;;;10.60;8.55;;;;;;;;;;5066402;28;20431;-79
2023/04/07 14:15:28;;;;;;;9.52;8.65;;;;;;;;;;5070853;28;20572;-79
2023/04/07 14:17:54;;;;;;;9.23;8.23;;;;;;;;;;5069411;28;20452;-79
2023/04/07 14:20:21;;;;;;;10.70;8.00;;;;;;;;;;5055499;28;20479;-79